sensor_id;sensor_type;location;lat;lon;timestamp;pressure;altitude;pressure_sealevel;temperature;humidity
72210;BME280;60113;48.762;12.302;2023-02-05T00:01:18;99212.44;;;-7.09;91.40
72210;BME280;60113;48.762;12.302;2023-02-05T00:03:43;99207.41;;;-7.06;91.24
72210;BME280;60113;48.762;12.302;2023-02-05T00:06:09;99210.81;;;-7.05;87.20
72210;BME280;60113;48.762;12.302;2023-02-05T00:08:35;99213.41;;;-7.04;87.30
72210;BME280;60113;48.762;12.302;2023-02-05T00:11:00;99215.16;;;-7.03;88.51
72210;BME280;60113;48.762;12.302;2023-02-05T00:13:37;99204.94;;;-7.03;89.19
72210;BME280;60113;48.762;12.302;2023-02-05T00:16:12;99218.50;;;-7.05;89.34
72210;BME280;60113;48.762;12.302;2023-02-05T00:18:38;99209.84;;;-7.10;90.71
72210;BME280;60113;48.762;12.302;2023-02-05T00:21:04;99209.81;;;-7.12;90.51
72210;BME280;60113;48.762;12.302;2023-02-05T00:23:29;99214.06;;;-7.12;88.58
72210;BME280;60113;48.762;12.302;2023-02-05T00:25:55;99211.53;;;-7.11;89.43
72210;BME280;60113;48.762;12.302;2023-02-05T00:28:20;99209.81;;;-7.12;89.71
72210;BME280;60113;48.762;12.302;2023-02-05T00:30:45;99208.91;;;-7.14;89.69
72210;BME280;60113;48.762;12.302;2023-02-05T00:33:11;99213.09;;;-7.16;88.90
72210;BME280;60113;48.762;12.302;2023-02-05T00:35:36;99218.19;;;-7.16;87.32
72210;BME280;60113;48.762;12.302;2023-02-05T00:38:01;99220.78;;;-7.15;90.63
72210;BME280;60113;48.762;12.302;2023-02-05T00:40:27;99216.44;;;-7.19;89.12
72210;BME280;60113;48.762;12.302;2023-02-05T00:42:52;99219.75;;;-7.23;87.27
72210;BME280;60113;48.762;12.302;2023-02-05T00:45:17;99211.28;;;-7.20;91.59
72210;BME280;60113;48.762;12.302;2023-02-05T00:47:43;99210.31;;;-7.24;91.11
72210;BME280;60113;48.762;12.302;2023-02-05T00:50:09;99209.44;;;-7.26;91.53
72210;BME280;60113;48.762;12.302;2023-02-05T00:52:34;99216.09;;;-7.31;91.14
72210;BME280;60113;48.762;12.302;2023-02-05T00:55:00;99215.22;;;-7.33;89.97
72210;BME280;60113;48.762;12.302;2023-02-05T00:57:25;99211.81;;;-7.32;89.44
72210;BME280;60113;48.762;12.302;2023-02-05T00:59:51;99210.94;;;-7.33;90.67
72210;BME280;60113;48.762;12.302;2023-02-05T01:02:17;99214.34;;;-7.34;91.42
72210;BME280;60113;48.762;12.302;2023-02-05T01:04:47;99210.06;;;-7.35;92.28
72210;BME280;60113;48.762;12.302;2023-02-05T01:07:12;99208.34;;;-7.34;94.74
72210;BME280;60113;48.762;12.302;2023-02-05T01:09:38;99206.53;;;-7.38;94.62
72210;BME280;60113;48.762;12.302;2023-02-05T01:12:03;99211.53;;;-7.43;92.90
72210;BME280;60113;48.762;12.302;2023-02-05T01:14:28;99214.91;;;-7.44;92.68
72210;BME280;60113;48.762;12.302;2023-02-05T01:16:54;99212.31;;;-7.46;91.94
72210;BME280;60113;48.762;12.302;2023-02-05T01:19:19;99212.28;;;-7.47;92.23
72210;BME280;60113;48.762;12.302;2023-02-05T01:21:44;99214.88;;;-7.46;93.63
72210;BME280;60113;48.762;12.302;2023-02-05T01:24:10;99209.66;;;-7.49;92.79
72210;BME280;60113;48.762;12.302;2023-02-05T01:26:35;99200.16;;;-7.53;92.99
72210;BME280;60113;48.762;12.302;2023-02-05T01:29:01;99203.66;;;-7.51;95.20
72210;BME280;60113;48.762;12.302;2023-02-05T01:31:26;99209.44;;;-7.57;93.21
72210;BME280;60113;48.762;12.302;2023-02-05T01:33:53;99208.75;;;-7.51;94.10
72210;BME280;60113;48.762;12.302;2023-02-05T01:36:19;99208.78;;;-7.49;94.07
72210;BME280;60113;48.762;12.302;2023-02-05T01:38:44;99215.59;;;-7.50;95.12
72210;BME280;60113;48.762;12.302;2023-02-05T01:41:11;99209.63;;;-7.50;94.96
72210;BME280;60113;48.762;12.302;2023-02-05T01:43:36;99209.53;;;-7.54;94.00
72210;BME280;60113;48.762;12.302;2023-02-05T01:46:23;99206.03;;;-7.57;94.39
72210;BME280;60113;48.762;12.302;2023-02-05T01:48:50;99216.88;;;-7.64;93.49
72210;BME280;60113;48.762;12.302;2023-02-05T01:51:17;99219.31;;;-7.69;93.47
72210;BME280;60113;48.762;12.302;2023-02-05T01:53:42;99214.88;;;-7.75;93.55
72210;BME280;60113;48.762;12.302;2023-02-05T01:56:10;99213.84;;;-7.82;93.26
72210;BME280;60113;48.762;12.302;2023-02-05T01:58:40;99220.44;;;-7.88;90.42
72210;BME280;60113;48.762;12.302;2023-02-05T02:01:09;99208.47;;;-7.91;88.23
72210;BME280;60113;48.762;12.302;2023-02-05T02:03:34;99218.56;;;-7.94;85.24
72210;BME280;60113;48.762;12.302;2023-02-05T02:05:59;99204.94;;;-7.95;84.03
72210;BME280;60113;48.762;12.302;2023-02-05T02:08:25;99209.25;;;-7.92;86.59
72210;BME280;60113;48.762;12.302;2023-02-05T02:10:50;99201.66;;;-7.91;87.70
72210;BME280;60113;48.762;12.302;2023-02-05T02:13:17;99203.50;;;-7.86;89.87
72210;BME280;60113;48.762;12.302;2023-02-05T02:15:43;99191.75;;;-7.80;89.87
72210;BME280;60113;48.762;12.302;2023-02-05T02:18:09;99195.38;;;-7.73;87.17
72210;BME280;60113;48.762;12.302;2023-02-05T02:26:47;99197.00;;;-7.75;86.29
72210;BME280;60113;48.762;12.302;2023-02-05T02:29:06;99183.97;;;-7.84;86.89
72210;BME280;60113;48.762;12.302;2023-02-05T02:31:41;99186.38;;;-7.89;88.34
72210;BME280;60113;48.762;12.302;2023-02-05T02:34:16;99178.63;;;-7.92;88.44
72210;BME280;60113;48.762;12.302;2023-02-05T02:36:54;99170.88;;;-7.95;89.49
72210;BME280;60113;48.762;12.302;2023-02-05T02:44:13;99167.41;;;-7.99;91.43
72210;BME280;60113;48.762;12.302;2023-02-05T02:46:45;99165.59;;;-8.03;88.55
72210;BME280;60113;48.762;12.302;2023-02-05T02:49:14;99175.84;;;-8.01;88.55
72210;BME280;60113;48.762;12.302;2023-02-05T02:51:40;99168.19;;;-8.01;89.88
72210;BME280;60113;48.762;12.302;2023-02-05T02:54:08;99164.66;;;-8.05;87.68
72210;BME280;60113;48.762;12.302;2023-02-05T02:56:36;99162.09;;;-8.05;87.50
72210;BME280;60113;48.762;12.302;2023-02-05T02:59:04;99174.81;;;-8.07;88.09
72210;BME280;60113;48.762;12.302;2023-02-05T03:01:30;99166.19;;;-8.10;87.74
72210;BME280;60113;48.762;12.302;2023-02-05T03:04:01;99174.59;;;-8.14;86.85
72210;BME280;60113;48.762;12.302;2023-02-05T03:06:26;99166.78;;;-8.19;86.72
72210;BME280;60113;48.762;12.302;2023-02-05T03:09:00;99169.25;;;-8.22;84.65
72210;BME280;60113;48.762;12.302;2023-02-05T03:11:28;99169.25;;;-8.22;86.83
72210;BME280;60113;48.762;12.302;2023-02-05T03:13:53;99159.88;;;-8.23;87.82
72210;BME280;60113;48.762;12.302;2023-02-05T03:16:19;99153.16;;;-8.20;90.18
72210;BME280;60113;48.762;12.302;2023-02-05T03:18:45;99151.44;;;-8.21;91.02
72210;BME280;60113;48.762;12.302;2023-02-05T03:21:21;99143.78;;;-8.21;91.15
72210;BME280;60113;48.762;12.302;2023-02-05T03:23:48;99137.81;;;-8.21;90.35
72210;BME280;60113;48.762;12.302;2023-02-05T03:26:26;99127.59;;;-8.21;91.83
72210;BME280;60113;48.762;12.302;2023-02-05T03:28:52;99127.59;;;-8.21;93.66
72210;BME280;60113;48.762;12.302;2023-02-05T03:31:19;99124.13;;;-8.25;92.03
72210;BME280;60113;48.762;12.302;2023-02-05T03:36:39;99118.88;;;-8.30;91.69
72210;BME280;60113;48.762;12.302;2023-02-05T03:41:37;99124.69;;;-8.34;91.34
72210;BME280;60113;48.762;12.302;2023-02-05T03:47:26;99137.47;;;-8.32;92.22
72210;BME280;60113;48.762;12.302;2023-02-05T03:52:31;99134.84;;;-8.35;92.83
72210;BME280;60113;48.762;12.302;2023-02-05T03:57:36;99152.59;;;-8.38;90.42
72210;BME280;60113;48.762;12.302;2023-02-05T04:00:03;99143.38;;;-8.35;90.57
72210;BME280;60113;48.762;12.302;2023-02-05T04:02:29;99142.59;;;-8.32;88.98
72210;BME280;60113;48.762;12.302;2023-02-05T04:04:54;99145.38;;;-8.24;89.07
72210;BME280;60113;48.762;12.302;2023-02-05T04:07:19;99137.84;;;-8.20;88.95
72210;BME280;60113;48.762;12.302;2023-02-05T04:09:45;99137.84;;;-8.20;88.60
72210;BME280;60113;48.762;12.302;2023-02-05T04:12:10;99137.75;;;-8.23;89.50
72210;BME280;60113;48.762;12.302;2023-02-05T04:14:35;99134.22;;;-8.28;89.23
72210;BME280;60113;48.762;12.302;2023-02-05T04:17:01;99132.44;;;-8.31;88.92
72210;BME280;60113;48.762;12.302;2023-02-05T04:19:27;99130.63;;;-8.35;88.95
72210;BME280;60113;48.762;12.302;2023-02-05T04:21:52;99128.84;;;-8.37;88.81
72210;BME280;60113;48.762;12.302;2023-02-05T04:24:17;99131.16;;;-8.45;86.63
72210;BME280;60113;48.762;12.302;2023-02-05T04:26:43;99128.50;;;-8.48;86.50
72210;BME280;60113;48.762;12.302;2023-02-05T04:29:08;99125.03;;;-8.50;85.36
72210;BME280;60113;48.762;12.302;2023-02-05T04:31:33;99124.22;;;-8.49;88.72
72210;BME280;60113;48.762;12.302;2023-02-05T04:33:58;99119.13;;;-8.49;90.28
72210;BME280;60113;48.762;12.302;2023-02-05T04:36:24;99113.13;;;-8.51;90.62
72210;BME280;60113;48.762;12.302;2023-02-05T04:38:49;99120.72;;;-8.53;91.13
72210;BME280;60113;48.762;12.302;2023-02-05T04:41:14;99123.28;;;-8.53;91.04
72210;BME280;60113;48.762;12.302;2023-02-05T04:43:40;99119.84;;;-8.54;91.01
72210;BME280;60113;48.762;12.302;2023-02-05T04:46:06;99119.78;;;-8.57;90.51
72210;BME280;60113;48.762;12.302;2023-02-05T04:48:31;99117.28;;;-8.55;90.17
72210;BME280;60113;48.762;12.302;2023-02-05T04:50:56;99112.19;;;-8.55;89.96
72210;BME280;60113;48.762;12.302;2023-02-05T04:53:22;99118.19;;;-8.53;91.07
72210;BME280;60113;48.762;12.302;2023-02-05T04:55:47;99116.56;;;-8.49;90.52
72210;BME280;60113;48.762;12.302;2023-02-05T04:58:12;99118.56;;;-8.41;91.90
72210;BME280;60113;48.762;12.302;2023-02-05T05:00:37;99125.59;;;-8.32;91.22
72210;BME280;60113;48.762;12.302;2023-02-05T05:03:03;99125.78;;;-8.25;90.79
72210;BME280;60113;48.762;12.302;2023-02-05T05:05:28;99114.19;;;-8.16;91.40
72210;BME280;60113;48.762;12.302;2023-02-05T05:07:54;99121.22;;;-8.07;88.68
72210;BME280;60113;48.762;12.302;2023-02-05T05:10:19;99119.88;;;-7.94;87.60
72210;BME280;60113;48.762;12.302;2023-02-05T05:12:44;99123.63;;;-7.82;87.03
72210;BME280;60113;48.762;12.302;2023-02-05T05:15:10;99117.13;;;-7.71;88.27
72210;BME280;60113;48.762;12.302;2023-02-05T05:17:35;99103.69;;;-7.63;88.33
72210;BME280;60113;48.762;12.302;2023-02-05T05:20:00;99110.63;;;-7.59;88.16
72210;BME280;60113;48.762;12.302;2023-02-05T05:22:26;99099.63;;;-7.57;88.79
72210;BME280;60113;48.762;12.302;2023-02-05T05:24:51;99094.66;;;-7.52;87.82
72210;BME280;60113;48.762;12.302;2023-02-05T05:27:16;99094.78;;;-7.47;86.43
72210;BME280;60113;48.762;12.302;2023-02-05T05:29:43;99095.69;;;-7.44;86.43
72210;BME280;60113;48.762;12.302;2023-02-05T05:32:08;99097.50;;;-7.41;85.76
72210;BME280;60113;48.762;12.302;2023-02-05T05:34:34;99089.00;;;-7.40;85.11
72210;BME280;60113;48.762;12.302;2023-02-05T05:36:59;99094.13;;;-7.38;85.30
72210;BME280;60113;48.762;12.302;2023-02-05T05:39:24;99100.88;;;-7.41;83.97
72210;BME280;60113;48.762;12.302;2023-02-05T05:42:09;99105.97;;;-7.42;85.68
72210;BME280;60113;48.762;12.302;2023-02-05T05:44:54;99116.06;;;-7.47;86.63
72210;BME280;60113;48.762;12.302;2023-02-05T05:47:19;99108.25;;;-7.51;86.23
72210;BME280;60113;48.762;12.302;2023-02-05T05:49:44;99107.31;;;-7.57;85.38
72210;BME280;60113;48.762;12.302;2023-02-05T05:52:10;99112.31;;;-7.60;86.38
72210;BME280;60113;48.762;12.302;2023-02-05T05:54:35;99120.69;;;-7.64;86.18
72210;BME280;60113;48.762;12.302;2023-02-05T05:57:01;99131.66;;;-7.68;85.57
72210;BME280;60113;48.762;12.302;2023-02-05T05:59:26;99120.50;;;-7.72;85.86
72210;BME280;60113;48.762;12.302;2023-02-05T06:01:51;99127.22;;;-7.75;84.91
72210;BME280;60113;48.762;12.302;2023-02-05T06:04:17;99128.81;;;-7.79;81.26
72210;BME280;60113;48.762;12.302;2023-02-05T06:06:42;99123.66;;;-7.81;82.51
72210;BME280;60113;48.762;12.302;2023-02-05T06:09:08;99125.25;;;-7.84;81.84
72210;BME280;60113;48.762;12.302;2023-02-05T06:11:34;99124.38;;;-7.86;82.79
72210;BME280;60113;48.762;12.302;2023-02-05T06:13:59;99126.03;;;-7.87;85.04
72210;BME280;60113;48.762;12.302;2023-02-05T06:16:24;99131.94;;;-7.89;86.55
72210;BME280;60113;48.762;12.302;2023-02-05T06:18:50;99135.19;;;-7.94;87.67
72210;BME280;60113;48.762;12.302;2023-02-05T06:21:15;99130.97;;;-7.93;90.10
72210;BME280;60113;48.762;12.302;2023-02-05T06:23:41;99124.06;;;-7.97;88.64
72210;BME280;60113;48.762;12.302;2023-02-05T06:26:06;99127.41;;;-7.98;88.95
72210;BME280;60113;48.762;12.302;2023-02-05T06:28:31;99130.00;;;-7.97;87.75
72210;BME280;60113;48.762;12.302;2023-02-05T06:30:57;99135.97;;;-7.96;88.30
72210;BME280;60113;48.762;12.302;2023-02-05T06:33:22;99137.66;;;-7.97;88.02
72210;BME280;60113;48.762;12.302;2023-02-05T06:35:47;99142.81;;;-7.95;89.53
72210;BME280;60113;48.762;12.302;2023-02-05T06:38:13;99142.06;;;-7.93;90.73
72210;BME280;60113;48.762;12.302;2023-02-05T06:40:38;99135.25;;;-7.92;90.96
72210;BME280;60113;48.762;12.302;2023-02-05T06:43:03;99127.63;;;-7.91;91.49
72210;BME280;60113;48.762;12.302;2023-02-05T06:45:29;99131.09;;;-7.88;92.92
72210;BME280;60113;48.762;12.302;2023-02-05T06:47:54;99126.00;;;-7.88;92.21
72210;BME280;60113;48.762;12.302;2023-02-05T06:50:20;99123.50;;;-7.87;91.81
72210;BME280;60113;48.762;12.302;2023-02-05T06:52:46;99129.50;;;-7.85;91.84
72210;BME280;60113;48.762;12.302;2023-02-05T06:55:11;99133.78;;;-7.84;91.64
72210;BME280;60113;48.762;12.302;2023-02-05T06:57:36;99128.72;;;-7.82;88.60
72210;BME280;60113;48.762;12.302;2023-02-05T07:00:02;99137.38;;;-7.77;87.19
72210;BME280;60113;48.762;12.302;2023-02-05T07:02:28;99135.00;;;-7.71;87.76
72210;BME280;60113;48.762;12.302;2023-02-05T07:04:53;99134.22;;;-7.68;88.38
72210;BME280;60113;48.762;12.302;2023-02-05T07:07:19;99130.13;;;-7.63;88.41
72210;BME280;60113;48.762;12.302;2023-02-05T07:09:44;99139.59;;;-7.59;88.30
72210;BME280;60113;48.762;12.302;2023-02-05T07:12:09;99134.56;;;-7.56;88.77
72210;BME280;60113;48.762;12.302;2023-02-05T07:14:38;99139.75;;;-7.53;89.19
72210;BME280;60113;48.762;12.302;2023-02-05T07:17:03;99127.94;;;-7.49;89.96
72210;BME280;60113;48.762;12.302;2023-02-05T07:19:29;99133.16;;;-7.44;88.87
72210;BME280;60113;48.762;12.302;2023-02-05T07:21:54;99127.31;;;-7.40;87.95
72210;BME280;60113;48.762;12.302;2023-02-05T07:24:19;99117.25;;;-7.34;89.39
72210;BME280;60113;48.762;12.302;2023-02-05T07:26:44;99125.88;;;-7.29;89.40
72210;BME280;60113;48.762;12.302;2023-02-05T07:29:10;99114.91;;;-7.26;88.43
72210;BME280;60113;48.762;12.302;2023-02-05T07:31:37;99119.28;;;-7.20;86.83
72210;BME280;60113;48.762;12.302;2023-02-05T07:34:02;99106.72;;;-7.12;89.40
72210;BME280;60113;48.762;12.302;2023-02-05T07:36:27;99104.28;;;-7.08;89.23
72210;BME280;60113;48.762;12.302;2023-02-05T07:38:53;99099.28;;;-7.03;89.53
72210;BME280;60113;48.762;12.302;2023-02-05T07:41:18;99090.06;;;-6.96;90.21
72210;BME280;60113;48.762;12.302;2023-02-05T07:43:43;99095.34;;;-6.90;89.98
72210;BME280;60113;48.762;12.302;2023-02-05T07:46:10;99091.19;;;-6.85;90.19
72210;BME280;60113;48.762;12.302;2023-02-05T07:48:35;99089.59;;;-6.80;88.80
72210;BME280;60113;48.762;12.302;2023-02-05T07:51:01;99100.94;;;-6.70;90.20
72210;BME280;60113;48.762;12.302;2023-02-05T07:53:26;99103.56;;;-6.65;90.40
72210;BME280;60113;48.762;12.302;2023-02-05T07:55:51;99106.25;;;-6.59;89.75
72210;BME280;60113;48.762;12.302;2023-02-05T07:58:17;99109.81;;;-6.54;88.66
72210;BME280;60113;48.762;12.302;2023-02-05T08:00:42;99115.94;;;-6.47;89.23
72210;BME280;60113;48.762;12.302;2023-02-05T08:03:07;99116.88;;;-6.42;88.98
72210;BME280;60113;48.762;12.302;2023-02-05T08:05:33;99123.84;;;-6.36;88.82
72210;BME280;60113;48.762;12.302;2023-02-05T08:07:59;99132.47;;;-6.31;88.92
72210;BME280;60113;48.762;12.302;2023-02-05T08:10:24;99131.78;;;-6.25;89.75
72210;BME280;60113;48.762;12.302;2023-02-05T08:12:50;99129.34;;;-6.19;89.57
72210;BME280;60113;48.762;12.302;2023-02-05T08:15:15;99130.38;;;-6.09;90.04
72210;BME280;60113;48.762;12.302;2023-02-05T08:17:40;99129.84;;;-5.92;90.77
72210;BME280;60113;48.762;12.302;2023-02-05T08:20:06;99117.63;;;-5.62;91.18
72210;BME280;60113;48.762;12.302;2023-02-05T08:22:39;99107.22;;;-5.24;91.38
72210;BME280;60113;48.762;12.302;2023-02-05T08:25:05;99098.53;;;-4.81;91.57
72210;BME280;60113;48.762;12.302;2023-02-05T08:27:31;99095.69;;;-4.43;91.68
72210;BME280;60113;48.762;12.302;2023-02-05T08:29:57;99098.69;;;-4.11;91.29
72210;BME280;60113;48.762;12.302;2023-02-05T08:32:22;99097.31;;;-3.83;90.42
72210;BME280;60113;48.762;12.302;2023-02-05T08:34:47;99079.63;;;-3.55;90.08
72210;BME280;60113;48.762;12.302;2023-02-05T08:37:13;99081.63;;;-3.24;91.62
72210;BME280;60113;48.762;12.302;2023-02-05T08:39:38;99082.72;;;-2.98;91.85
72210;BME280;60113;48.762;12.302;2023-02-05T08:42:04;99086.34;;;-2.78;91.02
72210;BME280;60113;48.762;12.302;2023-02-05T08:44:29;99085.59;;;-2.59;91.04
72210;BME280;60113;48.762;12.302;2023-02-05T08:46:56;99084.81;;;-2.49;90.63
72210;BME280;60113;48.762;12.302;2023-02-05T08:49:22;99081.38;;;-2.45;89.86
72210;BME280;60113;48.762;12.302;2023-02-05T08:51:47;99087.41;;;-2.46;89.22
72210;BME280;60113;48.762;12.302;2023-02-05T08:54:13;99077.94;;;-2.52;87.55
72210;BME280;60113;48.762;12.302;2023-02-05T08:56:39;99068.41;;;-2.62;87.15
72210;BME280;60113;48.762;12.302;2023-02-05T08:59:05;99068.41;;;-2.64;86.94
72210;BME280;60113;48.762;12.302;2023-02-05T09:01:32;99061.63;;;-2.47;87.91
72210;BME280;60113;48.762;12.302;2023-02-05T09:03:57;99061.81;;;-2.18;88.43
72210;BME280;60113;48.762;12.302;2023-02-05T09:06:23;99060.22;;;-1.81;87.85
72210;BME280;60113;48.762;12.302;2023-02-05T09:08:48;99065.50;;;-1.31;88.75
72210;BME280;60113;48.762;12.302;2023-02-05T09:11:18;99071.56;;;-0.93;87.22
72210;BME280;60113;48.762;12.302;2023-02-05T09:13:44;99069.78;;;-0.52;85.33
72210;BME280;60113;48.762;12.302;2023-02-05T09:16:09;99061.09;;;-0.17;85.06
72210;BME280;60113;48.762;12.302;2023-02-05T09:18:35;99065.28;;;0.12;79.15
72210;BME280;60113;48.762;12.302;2023-02-05T09:21:00;99056.59;;;0.34;78.92
72210;BME280;60113;48.762;12.302;2023-02-05T09:23:30;99048.75;;;0.48;76.88
72210;BME280;60113;48.762;12.302;2023-02-05T09:25:57;99042.59;;;0.66;76.20
72210;BME280;60113;48.762;12.302;2023-02-05T09:28:22;99045.94;;;0.76;75.36
72210;BME280;60113;48.762;12.302;2023-02-05T09:30:47;99038.19;;;0.74;73.55
72210;BME280;60113;48.762;12.302;2023-02-05T09:33:13;99038.97;;;0.87;75.51
72210;BME280;60113;48.762;12.302;2023-02-05T09:35:38;99037.28;;;0.85;72.69
72210;BME280;60113;48.762;12.302;2023-02-05T09:38:04;99031.38;;;0.66;72.33
72210;BME280;60113;48.762;12.302;2023-02-05T09:40:31;99033.22;;;0.49;73.53
72210;BME280;60113;48.762;12.302;2023-02-05T09:50:26;99018.34;;;0.78;77.49
72210;BME280;60113;48.762;12.302;2023-02-05T09:52:59;99013.16;;;0.77;75.97
72210;BME280;60113;48.762;12.302;2023-02-05T09:55:26;99010.56;;;0.78;76.86
72210;BME280;60113;48.762;12.302;2023-02-05T09:57:53;98996.97;;;0.53;74.80
72210;BME280;60113;48.762;12.302;2023-02-05T10:02:50;98989.19;;;0.56;78.70
72210;BME280;60113;48.762;12.302;2023-02-05T10:05:17;98992.56;;;0.62;76.96
72210;BME280;60113;48.762;12.302;2023-02-05T10:15:40;98965.53;;;0.98;77.03
72210;BME280;60113;48.762;12.302;2023-02-05T10:23:37;98959.88;;;1.46;77.46
72210;BME280;60113;48.762;12.302;2023-02-05T10:33:49;98943.75;;;1.93;74.02
72210;BME280;60113;48.762;12.302;2023-02-05T10:36:18;98941.94;;;2.00;73.25
72210;BME280;60113;48.762;12.302;2023-02-05T10:38:45;98939.13;;;2.14;72.19
72210;BME280;60113;48.762;12.302;2023-02-05T10:43:52;98927.16;;;2.05;73.34
72210;BME280;60113;48.762;12.302;2023-02-05T10:46:22;98927.13;;;2.07;75.08
72210;BME280;60113;48.762;12.302;2023-02-05T10:49:00;98929.59;;;2.15;74.68
72210;BME280;60113;48.762;12.302;2023-02-05T10:51:34;98924.41;;;2.16;77.45
72210;BME280;60113;48.762;12.302;2023-02-05T10:54:02;98931.63;;;1.95;73.17
72210;BME280;60113;48.762;12.302;2023-02-05T10:56:27;98926.50;;;1.91;72.33
72210;BME280;60113;48.762;12.302;2023-02-05T10:58:53;98932.56;;;1.88;73.83
72210;BME280;60113;48.762;12.302;2023-02-05T11:01:20;98928.47;;;1.71;72.86
72210;BME280;60113;48.762;12.302;2023-02-05T11:03:58;98923.41;;;1.62;73.15
72210;BME280;60113;48.762;12.302;2023-02-05T11:06:25;98923.38;;;1.65;77.13
72210;BME280;60113;48.762;12.302;2023-02-05T11:08:51;98928.16;;;1.27;67.93
72210;BME280;60113;48.762;12.302;2023-02-05T11:11:26;98920.34;;;1.29;68.47
72210;BME280;60113;48.762;12.302;2023-02-05T11:13:58;98912.78;;;1.11;71.34
72210;BME280;60113;48.762;12.302;2023-02-05T11:16:34;98916.34;;;0.96;73.39
72210;BME280;60113;48.762;12.302;2023-02-05T11:18:59;98918.16;;;0.90;72.66
72210;BME280;60113;48.762;12.302;2023-02-05T11:21:47;98917.50;;;0.69;71.58
72210;BME280;60113;48.762;12.302;2023-02-05T11:24:19;98908.16;;;0.52;71.76
72210;BME280;60113;48.762;12.302;2023-02-05T11:26:46;98912.50;;;0.47;71.13
72210;BME280;60113;48.762;12.302;2023-02-05T11:29:20;98914.28;;;0.42;71.68
72210;BME280;60113;48.762;12.302;2023-02-05T11:31:47;98904.72;;;0.50;73.07
72210;BME280;60113;48.762;12.302;2023-02-05T11:34:14;98905.53;;;0.57;72.92
72210;BME280;60113;48.762;12.302;2023-02-05T11:36:48;98899.38;;;0.67;72.94
72210;BME280;60113;48.762;12.302;2023-02-05T11:39:33;98911.50;;;0.67;71.71
72210;BME280;60113;48.762;12.302;2023-02-05T11:44:58;98909.59;;;0.83;68.21
72210;BME280;60113;48.762;12.302;2023-02-05T11:47:31;98910.47;;;0.82;67.73
72210;BME280;60113;48.762;12.302;2023-02-05T11:49:58;98896.81;;;0.67;67.31
72210;BME280;60113;48.762;12.302;2023-02-05T11:52:28;98904.59;;;0.62;66.14
72210;BME280;60113;48.762;12.302;2023-02-05T11:54:54;98898.44;;;0.76;68.34
72210;BME280;60113;48.762;12.302;2023-02-05T11:59:55;98902.41;;;1.11;67.77
72210;BME280;60113;48.762;12.302;2023-02-05T12:07:28;98902.00;;;1.44;64.21
72210;BME280;60113;48.762;12.302;2023-02-05T12:09:54;98894.91;;;1.60;67.16
72210;BME280;60113;48.762;12.302;2023-02-05T12:12:32;98894.72;;;1.76;72.25
72210;BME280;60113;48.762;12.302;2023-02-05T12:30:35;98886.69;;;1.93;63.95
72210;BME280;60113;48.762;12.302;2023-02-05T12:35:33;98877.78;;;2.11;67.87
72210;BME280;60113;48.762;12.302;2023-02-05T12:43:36;98876.69;;;2.27;63.64
72210;BME280;60113;48.762;12.302;2023-02-05T12:46:13;98869.84;;;2.21;60.62
72210;BME280;60113;48.762;12.302;2023-02-05T12:48:52;98873.25;;;2.26;64.17
72210;BME280;60113;48.762;12.302;2023-02-05T12:56:34;98864.47;;;1.77;65.41
72210;BME280;60113;48.762;12.302;2023-02-05T12:59:09;98870.94;;;1.44;66.61
72210;BME280;60113;48.762;12.302;2023-02-05T13:01:39;98865.78;;;1.41;67.21
72210;BME280;60113;48.762;12.302;2023-02-05T13:04:07;98859.41;;;0.95;67.44
72210;BME280;60113;48.762;12.302;2023-02-05T13:06:40;98865.59;;;0.84;68.61
72210;BME280;60113;48.762;12.302;2023-02-05T13:09:13;98869.22;;;0.68;69.14
72210;BME280;60113;48.762;12.302;2023-02-05T13:11:42;98865.00;;;0.57;69.64
72210;BME280;60113;48.762;12.302;2023-02-05T13:16:59;98858.06;;;0.59;71.44
72210;BME280;60113;48.762;12.302;2023-02-05T13:19:42;98857.06;;;0.73;69.07
72210;BME280;60113;48.762;12.302;2023-02-05T13:22:32;98856.09;;;0.86;69.58
72210;BME280;60113;48.762;12.302;2023-02-05T13:25:24;98855.25;;;0.81;70.39
72210;BME280;60113;48.762;12.302;2023-02-05T13:28:27;98853.53;;;0.83;70.96
72210;BME280;60113;48.762;12.302;2023-02-05T13:31:08;98850.09;;;0.80;69.36
72210;BME280;60113;48.762;12.302;2023-02-05T13:33:35;98845.06;;;0.67;69.35
72210;BME280;60113;48.762;12.302;2023-02-05T13:43:34;98837.69;;;1.10;68.94
72210;BME280;60113;48.762;12.302;2023-02-05T13:51:40;98826.38;;;1.19;66.13
72210;BME280;60113;48.762;12.302;2023-02-05T13:59:00;98838.84;;;1.55;64.19
72210;BME280;60113;48.762;12.302;2023-02-05T14:01:40;98831.72;;;1.71;65.06
72210;BME280;60113;48.762;12.302;2023-02-05T14:04:14;98828.16;;;1.80;64.66
72210;BME280;60113;48.762;12.302;2023-02-05T14:06:41;98828.88;;;1.86;64.77
72210;BME280;60113;48.762;12.302;2023-02-05T14:09:42;98827.13;;;1.90;63.60
72210;BME280;60113;48.762;12.302;2023-02-05T14:12:00;98831.31;;;1.97;64.05
72210;BME280;60113;48.762;12.302;2023-02-05T14:14:28;98835.56;;;2.02;65.97
72210;BME280;60113;48.762;12.302;2023-02-05T14:16:54;98839.97;;;1.98;63.31
72210;BME280;60113;48.762;12.302;2023-02-05T14:19:22;98839.22;;;1.88;61.26
72210;BME280;60113;48.762;12.302;2023-02-05T14:24:25;98842.66;;;1.90;63.73
72210;BME280;60113;48.762;12.302;2023-02-05T14:26:52;98834.06;;;1.86;65.02
72210;BME280;60113;48.762;12.302;2023-02-05T14:29:39;98835.91;;;1.81;64.33
72210;BME280;60113;48.762;12.302;2023-02-05T14:32:08;98835.91;;;1.80;66.99
72210;BME280;60113;48.762;12.302;2023-02-05T14:36:59;98839.56;;;1.65;65.75
72210;BME280;60113;48.762;12.302;2023-02-05T14:39:32;98844.88;;;1.55;66.81
72210;BME280;60113;48.762;12.302;2023-02-05T14:41:58;98845.88;;;1.46;66.35
72210;BME280;60113;48.762;12.302;2023-02-05T14:44:29;98840.72;;;1.43;69.68
72210;BME280;60113;48.762;12.302;2023-02-05T14:47:03;98842.53;;;1.35;70.17
72210;BME280;60113;48.762;12.302;2023-02-05T14:54:44;98840.22;;;1.16;72.87
72210;BME280;60113;48.762;12.302;2023-02-05T14:59:52;98851.56;;;1.03;70.76
72210;BME280;60113;48.762;12.302;2023-02-05T15:05:03;98854.28;;;0.92;71.66
72210;BME280;60113;48.762;12.302;2023-02-05T15:07:29;98842.31;;;0.81;70.11
72210;BME280;60113;48.762;12.302;2023-02-05T15:10:00;98843.28;;;0.72;69.47